sensor_id;sensor_type;location;lat;lon;timestamp;P1;durP1;ratioP1;P2;durP2;ratioP2
36585;SDS011;22591;48.314;11.562;2023-01-28T00:00:30;35.35;;;23.27;;
36585;SDS011;22591;48.314;11.562;2023-01-28T00:02:55;32.30;;;21.45;;
36585;SDS011;22591;48.314;11.562;2023-01-28T00:05:21;37.63;;;21.63;;
36585;SDS011;22591;48.314;11.562;2023-01-28T00:07:49;31.98;;;21.83;;
36585;SDS011;22591;48.314;11.562;2023-01-28T00:10:16;35.10;;;21.90;;
36585;SDS011;22591;48.314;11.562;2023-01-28T00:12:41;36.08;;;21.02;;
36585;SDS011;22591;48.314;11.562;2023-01-28T00:15:07;37.03;;;22.70;;
36585;SDS011;22591;48.314;11.562;2023-01-28T00:17:33;38.10;;;24.38;;
36585;SDS011;22591;48.314;11.562;2023-01-28T00:20:00;39.40;;;23.73;;
36585;SDS011;22591;48.314;11.562;2023-01-28T00:22:27;33.38;;;22.80;;
36585;SDS011;22591;48.314;11.562;2023-01-28T00:24:52;34.65;;;21.98;;
36585;SDS011;22591;48.314;11.562;2023-01-28T00:27:18;38.83;;;23.10;;
36585;SDS011;22591;48.314;11.562;2023-01-28T00:29:43;37.03;;;22.73;;
36585;SDS011;22591;48.314;11.562;2023-01-28T00:32:09;35.40;;;22.80;;
36585;SDS011;22591;48.314;11.562;2023-01-28T00:34:35;36.22;;;23.50;;
36585;SDS011;22591;48.314;11.562;2023-01-28T00:37:00;38.35;;;22.38;;
36585;SDS011;22591;48.314;11.562;2023-01-28T00:39:26;36.70;;;22.35;;
36585;SDS011;22591;48.314;11.562;2023-01-28T00:41:51;38.63;;;24.05;;
36585;SDS011;22591;48.314;11.562;2023-01-28T00:44:18;38.05;;;23.67;;
36585;SDS011;22591;48.314;11.562;2023-01-28T00:46:44;38.38;;;22.65;;
36585;SDS011;22591;48.314;11.562;2023-01-28T00:49:10;43.88;;;23.70;;
36585;SDS011;22591;48.314;11.562;2023-01-28T00:51:35;38.47;;;22.73;;
36585;SDS011;22591;48.314;11.562;2023-01-28T00:54:01;32.83;;;20.88;;
36585;SDS011;22591;48.314;11.562;2023-01-28T00:56:27;32.60;;;22.23;;
36585;SDS011;22591;48.314;11.562;2023-01-28T00:58:53;37.30;;;22.40;;
36585;SDS011;22591;48.314;11.562;2023-01-28T01:01:20;35.33;;;23.23;;
36585;SDS011;22591;48.314;11.562;2023-01-28T01:03:47;37.95;;;24.08;;
36585;SDS011;22591;48.314;11.562;2023-01-28T01:06:21;41.53;;;24.67;;
36585;SDS011;22591;48.314;11.562;2023-01-28T01:08:48;36.33;;;23.10;;
36585;SDS011;22591;48.314;11.562;2023-01-28T01:11:14;37.80;;;23.88;;
36585;SDS011;22591;48.314;11.562;2023-01-28T01:13:39;40.85;;;24.20;;
36585;SDS011;22591;48.314;11.562;2023-01-28T01:16:07;37.42;;;22.20;;
36585;SDS011;22591;48.314;11.562;2023-01-28T01:18:34;38.33;;;23.08;;
36585;SDS011;22591;48.314;11.562;2023-01-28T01:21:00;35.55;;;22.88;;
36585;SDS011;22591;48.314;11.562;2023-01-28T01:23:27;35.08;;;22.80;;
36585;SDS011;22591;48.314;11.562;2023-01-28T01:25:54;36.97;;;25.05;;
36585;SDS011;22591;48.314;11.562;2023-01-28T01:28:19;41.42;;;24.35;;
36585;SDS011;22591;48.314;11.562;2023-01-28T01:30:46;43.05;;;26.80;;
36585;SDS011;22591;48.314;11.562;2023-01-28T01:33:13;43.85;;;24.05;;
36585;SDS011;22591;48.314;11.562;2023-01-28T01:35:39;46.10;;;24.15;;
36585;SDS011;22591;48.314;11.562;2023-01-28T01:38:05;37.78;;;23.27;;
36585;SDS011;22591;48.314;11.562;2023-01-28T01:40:30;38.22;;;23.15;;
36585;SDS011;22591;48.314;11.562;2023-01-28T01:42:56;38.78;;;23.92;;
36585;SDS011;22591;48.314;11.562;2023-01-28T01:45:22;41.58;;;24.20;;
36585;SDS011;22591;48.314;11.562;2023-01-28T01:48:04;45.75;;;26.83;;
36585;SDS011;22591;48.314;11.562;2023-01-28T01:50:41;43.38;;;24.88;;
36585;SDS011;22591;48.314;11.562;2023-01-28T01:53:15;45.28;;;24.40;;
36585;SDS011;22591;48.314;11.562;2023-01-28T01:55:46;43.80;;;25.38;;
36585;SDS011;22591;48.314;11.562;2023-01-28T01:58:15;42.83;;;24.42;;
36585;SDS011;22591;48.314;11.562;2023-01-28T02:00:43;41.05;;;24.95;;
36585;SDS011;22591;48.314;11.562;2023-01-28T02:03:10;41.03;;;23.55;;
36585;SDS011;22591;48.314;11.562;2023-01-28T02:05:36;43.25;;;24.25;;
36585;SDS011;22591;48.314;11.562;2023-01-28T02:08:03;42.75;;;25.20;;
36585;SDS011;22591;48.314;11.562;2023-01-28T02:10:54;39.08;;;24.13;;
36585;SDS011;22591;48.314;11.562;2023-01-28T02:13:25;44.55;;;24.27;;
36585;SDS011;22591;48.314;11.562;2023-01-28T02:15:54;39.03;;;22.15;;
36585;SDS011;22591;48.314;11.562;2023-01-28T02:18:21;41.47;;;24.77;;
36585;SDS011;22591;48.314;11.562;2023-01-28T02:20:54;40.10;;;23.98;;
36585;SDS011;22591;48.314;11.562;2023-01-28T02:24:31;36.95;;;22.20;;
36585;SDS011;22591;48.314;11.562;2023-01-28T02:31:54;37.75;;;21.50;;
36585;SDS011;22591;48.314;11.562;2023-01-28T02:37:24;35.60;;;23.40;;
36585;SDS011;22591;48.314;11.562;2023-01-28T02:39:58;32.15;;;20.05;;
36585;SDS011;22591;48.314;11.562;2023-01-28T02:42:30;35.78;;;22.13;;
36585;SDS011;22591;48.314;11.562;2023-01-28T02:44:58;34.72;;;21.50;;
36585;SDS011;22591;48.314;11.562;2023-01-28T02:47:24;41.85;;;23.45;;
36585;SDS011;22591;48.314;11.562;2023-01-28T02:50:10;37.05;;;21.80;;
36585;SDS011;22591;48.314;11.562;2023-01-28T03:03:55;44.08;;;23.98;;
36585;SDS011;22591;48.314;11.562;2023-01-28T03:06:23;40.92;;;24.38;;
36585;SDS011;22591;48.314;11.562;2023-01-28T03:09:05;38.03;;;22.67;;
36585;SDS011;22591;48.314;11.562;2023-01-28T03:11:52;36.40;;;21.77;;
36585;SDS011;22591;48.314;11.562;2023-01-28T03:14:39;38.83;;;22.95;;
36585;SDS011;22591;48.314;11.562;2023-01-28T03:18:12;38.13;;;22.15;;
36585;SDS011;22591;48.314;11.562;2023-01-28T03:23:59;34.45;;;21.00;;
36585;SDS011;22591;48.314;11.562;2023-01-28T03:26:56;38.15;;;23.73;;
36585;SDS011;22591;48.314;11.562;2023-01-28T03:29:50;37.20;;;23.63;;
36585;SDS011;22591;48.314;11.562;2023-01-28T03:32:39;41.17;;;23.23;;
36585;SDS011;22591;48.314;11.562;2023-01-28T03:35:25;37.03;;;22.52;;
36585;SDS011;22591;48.314;11.562;2023-01-28T03:38:15;36.95;;;22.02;;
36585;SDS011;22591;48.314;11.562;2023-01-28T03:40:55;35.63;;;22.20;;
36585;SDS011;22591;48.314;11.562;2023-01-28T03:43:22;35.95;;;21.45;;
36585;SDS011;22591;48.314;11.562;2023-01-28T03:45:48;36.15;;;21.40;;
36585;SDS011;22591;48.314;11.562;2023-01-28T03:48:16;32.20;;;19.95;;
36585;SDS011;22591;48.314;11.562;2023-01-28T03:50:46;27.70;;;17.67;;
36585;SDS011;22591;48.314;11.562;2023-01-28T03:53:12;26.83;;;17.15;;
36585;SDS011;22591;48.314;11.562;2023-01-28T03:55:39;27.42;;;18.20;;
36585;SDS011;22591;48.314;11.562;2023-01-28T03:58:09;31.30;;;20.67;;
36585;SDS011;22591;48.314;11.562;2023-01-28T04:00:35;30.30;;;18.95;;
36585;SDS011;22591;48.314;11.562;2023-01-28T04:03:02;32.90;;;20.33;;
36585;SDS011;22591;48.314;11.562;2023-01-28T04:05:28;32.50;;;21.27;;
36585;SDS011;22591;48.314;11.562;2023-01-28T04:07:54;28.77;;;19.30;;
36585;SDS011;22591;48.314;11.562;2023-01-28T04:10:20;34.10;;;20.10;;
36585;SDS011;22591;48.314;11.562;2023-01-28T04:12:45;34.05;;;21.55;;
36585;SDS011;22591;48.314;11.562;2023-01-28T04:15:14;31.05;;;20.33;;
36585;SDS011;22591;48.314;11.562;2023-01-28T04:17:46;34.22;;;21.98;;
36585;SDS011;22591;48.314;11.562;2023-01-28T04:20:12;31.08;;;20.38;;
36585;SDS011;22591;48.314;11.562;2023-01-28T04:22:39;34.03;;;20.55;;
36585;SDS011;22591;48.314;11.562;2023-01-28T04:25:04;33.58;;;21.55;;
36585;SDS011;22591;48.314;11.562;2023-01-28T04:27:30;29.85;;;20.27;;
36585;SDS011;22591;48.314;11.562;2023-01-28T04:29:56;34.55;;;21.13;;
36585;SDS011;22591;48.314;11.562;2023-01-28T04:32:21;35.38;;;22.55;;
36585;SDS011;22591;48.314;11.562;2023-01-28T04:34:47;32.88;;;19.90;;
36585;SDS011;22591;48.314;11.562;2023-01-28T04:37:12;27.88;;;18.33;;
36585;SDS011;22591;48.314;11.562;2023-01-28T04:39:38;33.17;;;21.20;;
36585;SDS011;22591;48.314;11.562;2023-01-28T04:42:03;30.27;;;19.77;;
36585;SDS011;22591;48.314;11.562;2023-01-28T04:44:29;34.03;;;21.40;;
36585;SDS011;22591;48.314;11.562;2023-01-28T04:46:54;26.67;;;19.20;;
36585;SDS011;22591;48.314;11.562;2023-01-28T04:49:20;39.78;;;21.42;;
36585;SDS011;22591;48.314;11.562;2023-01-28T04:51:45;32.78;;;20.67;;
36585;SDS011;22591;48.314;11.562;2023-01-28T04:54:11;37.60;;;20.67;;
36585;SDS011;22591;48.314;11.562;2023-01-28T04:56:36;31.80;;;19.95;;
36585;SDS011;22591;48.314;11.562;2023-01-28T04:59:02;28.25;;;19.58;;
36585;SDS011;22591;48.314;11.562;2023-01-28T05:01:28;30.58;;;20.33;;
36585;SDS011;22591;48.314;11.562;2023-01-28T05:03:54;31.55;;;20.08;;
36585;SDS011;22591;48.314;11.562;2023-01-28T05:06:19;29.52;;;19.73;;
36585;SDS011;22591;48.314;11.562;2023-01-28T05:08:45;32.40;;;20.45;;
36585;SDS011;22591;48.314;11.562;2023-01-28T05:11:11;30.67;;;20.63;;
36585;SDS011;22591;48.314;11.562;2023-01-28T05:13:37;33.20;;;21.40;;
36585;SDS011;22591;48.314;11.562;2023-01-28T05:16:03;32.15;;;20.60;;
36585;SDS011;22591;48.314;11.562;2023-01-28T05:18:29;33.72;;;21.80;;
36585;SDS011;22591;48.314;11.562;2023-01-28T05:20:55;31.85;;;21.27;;
36585;SDS011;22591;48.314;11.562;2023-01-28T05:23:21;32.03;;;19.38;;
36585;SDS011;22591;48.314;11.562;2023-01-28T05:25:47;35.15;;;21.17;;
36585;SDS011;22591;48.314;11.562;2023-01-28T05:28:13;31.92;;;20.27;;
36585;SDS011;22591;48.314;11.562;2023-01-28T05:30:38;30.35;;;19.55;;
36585;SDS011;22591;48.314;11.562;2023-01-28T05:33:04;35.97;;;21.95;;
36585;SDS011;22591;48.314;11.562;2023-01-28T05:35:30;34.50;;;21.80;;
36585;SDS011;22591;48.314;11.562;2023-01-28T05:37:55;32.13;;;20.52;;
36585;SDS011;22591;48.314;11.562;2023-01-28T05:40:21;34.55;;;21.77;;
36585;SDS011;22591;48.314;11.562;2023-01-28T05:42:46;34.15;;;20.15;;
36585;SDS011;22591;48.314;11.562;2023-01-28T05:45:12;36.90;;;21.52;;
36585;SDS011;22591;48.314;11.562;2023-01-28T05:47:37;32.20;;;19.75;;
36585;SDS011;22591;48.314;11.562;2023-01-28T05:50:04;29.73;;;19.65;;
36585;SDS011;22591;48.314;11.562;2023-01-28T05:52:30;32.08;;;19.55;;
36585;SDS011;22591;48.314;11.562;2023-01-28T05:54:56;31.50;;;19.10;;
36585;SDS011;22591;48.314;11.562;2023-01-28T05:57:21;31.17;;;19.92;;
36585;SDS011;22591;48.314;11.562;2023-01-28T05:59:47;30.38;;;18.88;;
36585;SDS011;22591;48.314;11.562;2023-01-28T06:02:12;30.40;;;20.73;;
36585;SDS011;22591;48.314;11.562;2023-01-28T06:04:38;29.55;;;19.48;;
36585;SDS011;22591;48.314;11.562;2023-01-28T06:07:04;34.05;;;19.35;;
36585;SDS011;22591;48.314;11.562;2023-01-28T06:09:29;29.85;;;19.30;;
36585;SDS011;22591;48.314;11.562;2023-01-28T06:11:55;28.40;;;18.00;;
36585;SDS011;22591;48.314;11.562;2023-01-28T06:14:20;30.65;;;18.60;;
36585;SDS011;22591;48.314;11.562;2023-01-28T06:16:46;32.72;;;20.33;;
36585;SDS011;22591;48.314;11.562;2023-01-28T06:19:11;27.25;;;18.65;;
36585;SDS011;22591;48.314;11.562;2023-01-28T06:21:37;31.52;;;19.25;;
36585;SDS011;22591;48.314;11.562;2023-01-28T06:24:02;31.45;;;20.75;;
36585;SDS011;22591;48.314;11.562;2023-01-28T06:26:28;27.35;;;18.75;;
36585;SDS011;22591;48.314;11.562;2023-01-28T06:28:54;29.10;;;19.65;;
36585;SDS011;22591;48.314;11.562;2023-01-28T06:31:20;31.58;;;19.33;;
36585;SDS011;22591;48.314;11.562;2023-01-28T06:33:45;30.70;;;19.75;;
36585;SDS011;22591;48.314;11.562;2023-01-28T06:36:11;24.75;;;16.52;;
36585;SDS011;22591;48.314;11.562;2023-01-28T06:38:36;26.67;;;18.00;;
36585;SDS011;22591;48.314;11.562;2023-01-28T06:41:02;24.38;;;17.45;;
36585;SDS011;22591;48.314;11.562;2023-01-28T06:43:28;31.27;;;18.08;;
36585;SDS011;22591;48.314;11.562;2023-01-28T06:45:54;28.83;;;18.92;;
36585;SDS011;22591;48.314;11.562;2023-01-28T06:48:24;31.33;;;18.60;;
36585;SDS011;22591;48.314;11.562;2023-01-28T06:50:50;28.13;;;18.10;;
36585;SDS011;22591;48.314;11.562;2023-01-28T06:53:17;28.73;;;18.38;;
36585;SDS011;22591;48.314;11.562;2023-01-28T06:55:42;30.85;;;18.83;;
36585;SDS011;22591;48.314;11.562;2023-01-28T06:58:08;31.75;;;20.13;;
36585;SDS011;22591;48.314;11.562;2023-01-28T07:00:34;32.15;;;19.92;;
36585;SDS011;22591;48.314;11.562;2023-01-28T07:03:01;35.67;;;19.70;;
36585;SDS011;22591;48.314;11.562;2023-01-28T07:05:26;29.75;;;18.35;;
36585;SDS011;22591;48.314;11.562;2023-01-28T07:07:52;29.83;;;19.05;;
36585;SDS011;22591;48.314;11.562;2023-01-28T07:10:17;31.58;;;18.23;;
36585;SDS011;22591;48.314;11.562;2023-01-28T07:12:43;29.35;;;19.23;;
36585;SDS011;22591;48.314;11.562;2023-01-28T07:15:09;29.88;;;17.48;;
36585;SDS011;22591;48.314;11.562;2023-01-28T07:17:37;33.00;;;19.75;;
36585;SDS011;22591;48.314;11.562;2023-01-28T07:20:05;28.70;;;19.83;;
36585;SDS011;22591;48.314;11.562;2023-01-28T07:22:31;27.60;;;18.83;;
36585;SDS011;22591;48.314;11.562;2023-01-28T07:24:57;33.85;;;19.45;;
36585;SDS011;22591;48.314;11.562;2023-01-28T07:27:23;24.70;;;17.00;;
36585;SDS011;22591;48.314;11.562;2023-01-28T07:29:48;29.33;;;19.58;;
36585;SDS011;22591;48.314;11.562;2023-01-28T07:32:14;30.75;;;17.13;;
36585;SDS011;22591;48.314;11.562;2023-01-28T07:34:39;25.88;;;17.40;;
36585;SDS011;22591;48.314;11.562;2023-01-28T07:37:07;26.85;;;17.00;;
36585;SDS011;22591;48.314;11.562;2023-01-28T07:39:33;29.27;;;18.02;;
36585;SDS011;22591;48.314;11.562;2023-01-28T07:41:58;26.55;;;18.88;;
36585;SDS011;22591;48.314;11.562;2023-01-28T07:44:24;27.48;;;18.48;;
36585;SDS011;22591;48.314;11.562;2023-01-28T07:46:50;26.30;;;17.40;;
36585;SDS011;22591;48.314;11.562;2023-01-28T07:49:15;31.85;;;18.70;;
36585;SDS011;22591;48.314;11.562;2023-01-28T07:51:41;25.77;;;16.60;;
36585;SDS011;22591;48.314;11.562;2023-01-28T07:54:07;31.50;;;18.00;;
36585;SDS011;22591;48.314;11.562;2023-01-28T07:56:33;28.52;;;17.83;;
36585;SDS011;22591;48.314;11.562;2023-01-28T07:58:58;25.98;;;16.27;;
36585;SDS011;22591;48.314;11.562;2023-01-28T08:01:24;26.77;;;19.40;;
36585;SDS011;22591;48.314;11.562;2023-01-28T08:03:50;23.88;;;16.45;;
36585;SDS011;22591;48.314;11.562;2023-01-28T08:06:15;25.60;;;16.25;;
36585;SDS011;22591;48.314;11.562;2023-01-28T08:08:41;24.75;;;17.70;;
36585;SDS011;22591;48.314;11.562;2023-01-28T08:11:07;22.77;;;15.63;;
36585;SDS011;22591;48.314;11.562;2023-01-28T08:13:33;27.02;;;17.45;;
36585;SDS011;22591;48.314;11.562;2023-01-28T08:15:59;21.30;;;15.63;;
36585;SDS011;22591;48.314;11.562;2023-01-28T08:21:04;22.80;;;15.43;;
36585;SDS011;22591;48.314;11.562;2023-01-28T08:23:30;26.48;;;16.80;;
36585;SDS011;22591;48.314;11.562;2023-01-28T08:25:58;21.55;;;16.25;;
36585;SDS011;22591;48.314;11.562;2023-01-28T08:28:24;22.45;;;15.65;;
36585;SDS011;22591;48.314;11.562;2023-01-28T08:30:50;23.85;;;16.67;;
36585;SDS011;22591;48.314;11.562;2023-01-28T08:33:16;24.52;;;16.05;;
36585;SDS011;22591;48.314;11.562;2023-01-28T08:35:43;21.90;;;16.08;;
36585;SDS011;22591;48.314;11.562;2023-01-28T08:38:09;27.15;;;17.42;;
36585;SDS011;22591;48.314;11.562;2023-01-28T08:40:37;24.40;;;16.98;;
36585;SDS011;22591;48.314;11.562;2023-01-28T08:43:03;23.67;;;17.30;;
36585;SDS011;22591;48.314;11.562;2023-01-28T08:45:29;26.05;;;17.92;;
36585;SDS011;22591;48.314;11.562;2023-01-28T08:47:57;23.73;;;16.15;;
36585;SDS011;22591;48.314;11.562;2023-01-28T08:50:24;23.98;;;17.02;;
36585;SDS011;22591;48.314;11.562;2023-01-28T08:52:55;21.17;;;15.70;;
36585;SDS011;22591;48.314;11.562;2023-01-28T08:55:22;23.52;;;16.10;;
36585;SDS011;22591;48.314;11.562;2023-01-28T08:57:48;23.45;;;16.08;;
36585;SDS011;22591;48.314;11.562;2023-01-28T09:00:14;21.50;;;16.00;;
36585;SDS011;22591;48.314;11.562;2023-01-28T09:02:40;20.73;;;15.00;;
36585;SDS011;22591;48.314;11.562;2023-01-28T09:05:06;22.98;;;14.88;;
36585;SDS011;22591;48.314;11.562;2023-01-28T09:07:36;25.92;;;17.30;;
36585;SDS011;22591;48.314;11.562;2023-01-28T09:10:02;20.17;;;15.02;;
36585;SDS011;22591;48.314;11.562;2023-01-28T09:12:28;20.73;;;14.77;;
36585;SDS011;22591;48.314;11.562;2023-01-28T09:14:54;19.33;;;14.80;;
36585;SDS011;22591;48.314;11.562;2023-01-28T09:17:20;21.70;;;16.10;;
36585;SDS011;22591;48.314;11.562;2023-01-28T09:19:46;20.30;;;14.82;;
36585;SDS011;22591;48.314;11.562;2023-01-28T09:22:11;19.98;;;14.90;;
36585;SDS011;22591;48.314;11.562;2023-01-28T09:24:37;23.60;;;16.40;;
36585;SDS011;22591;48.314;11.562;2023-01-28T09:27:02;19.38;;;14.68;;
36585;SDS011;22591;48.314;11.562;2023-01-28T09:29:28;20.02;;;15.52;;
36585;SDS011;22591;48.314;11.562;2023-01-28T09:31:54;20.60;;;16.42;;
36585;SDS011;22591;48.314;11.562;2023-01-28T09:34:19;19.73;;;15.32;;
36585;SDS011;22591;48.314;11.562;2023-01-28T09:36:45;21.08;;;15.45;;
36585;SDS011;22591;48.314;11.562;2023-01-28T09:39:10;21.05;;;14.52;;
36585;SDS011;22591;48.314;11.562;2023-01-28T09:44:05;19.67;;;13.68;;
36585;SDS011;22591;48.314;11.562;2023-01-28T09:50:06;17.38;;;14.10;;
36585;SDS011;22591;48.314;11.562;2023-01-28T09:52:37;21.33;;;15.65;;
36585;SDS011;22591;48.314;11.562;2023-01-28T09:58:11;20.08;;;15.43;;
36585;SDS011;22591;48.314;11.562;2023-01-28T10:06:15;19.15;;;15.32;;
36585;SDS011;22591;48.314;11.562;2023-01-28T10:17:26;19.13;;;14.95;;
36585;SDS011;22591;48.314;11.562;2023-01-28T10:20:05;17.75;;;14.57;;
36585;SDS011;22591;48.314;11.562;2023-01-28T10:22:51;17.83;;;13.90;;
36585;SDS011;22591;48.314;11.562;2023-01-28T10:25:27;17.92;;;14.43;;
36585;SDS011;22591;48.314;11.562;2023-01-28T10:27:54;17.40;;;14.50;;
36585;SDS011;22591;48.314;11.562;2023-01-28T10:35:24;17.05;;;14.68;;
36585;SDS011;22591;48.314;11.562;2023-01-28T10:37:52;14.75;;;13.00;;
36585;SDS011;22591;48.314;11.562;2023-01-28T10:42:48;17.08;;;13.95;;
36585;SDS011;22591;48.314;11.562;2023-01-28T10:45:21;17.63;;;13.95;;
36585;SDS011;22591;48.314;11.562;2023-01-28T10:47:52;16.63;;;13.77;;
36585;SDS011;22591;48.314;11.562;2023-01-28T10:50:37;18.25;;;13.70;;
36585;SDS011;22591;48.314;11.562;2023-01-28T10:53:17;19.77;;;14.60;;
36585;SDS011;22591;48.314;11.562;2023-01-28T10:55:48;19.63;;;14.48;;
36585;SDS011;22591;48.314;11.562;2023-01-28T10:58:20;18.27;;;13.63;;
36585;SDS011;22591;48.314;11.562;2023-01-28T11:00:51;18.08;;;13.88;;
36585;SDS011;22591;48.314;11.562;2023-01-28T11:03:37;19.23;;;13.75;;
36585;SDS011;22591;48.314;11.562;2023-01-28T11:06:27;18.98;;;13.63;;
36585;SDS011;22591;48.314;11.562;2023-01-28T11:08:54;17.60;;;13.85;;
36585;SDS011;22591;48.314;11.562;2023-01-28T11:11:27;17.40;;;13.52;;
36585;SDS011;22591;48.314;11.562;2023-01-28T11:13:53;18.48;;;13.43;;
36585;SDS011;22591;48.314;11.562;2023-01-28T11:16:22;24.25;;;14.38;;
36585;SDS011;22591;48.314;11.562;2023-01-28T11:18:50;22.38;;;16.25;;
36585;SDS011;22591;48.314;11.562;2023-01-28T11:21:26;20.10;;;14.60;;
36585;SDS011;22591;48.314;11.562;2023-01-28T11:24:00;21.35;;;14.60;;
36585;SDS011;22591;48.314;11.562;2023-01-28T11:26:43;18.98;;;14.02;;
36585;SDS011;22591;48.314;11.562;2023-01-28T11:29:46;19.33;;;14.93;;
36585;SDS011;22591;48.314;11.562;2023-01-28T11:32:14;17.00;;;13.60;;
36585;SDS011;22591;48.314;11.562;2023-01-28T11:34:48;17.60;;;13.60;;
36585;SDS011;22591;48.314;11.562;2023-01-28T11:37:15;16.65;;;13.02;;
36585;SDS011;22591;48.314;11.562;2023-01-28T11:39:41;18.20;;;13.77;;
36585;SDS011;22591;48.314;11.562;2023-01-28T11:44:38;17.92;;;13.88;;
36585;SDS011;22591;48.314;11.562;2023-01-28T11:55:26;17.70;;;13.73;;
36585;SDS011;22591;48.314;11.562;2023-01-28T12:04:08;17.70;;;12.52;;
36585;SDS011;22591;48.314;11.562;2023-01-28T12:14:55;12.27;;;10.55;;
36585;SDS011;22591;48.314;11.562;2023-01-28T12:17:55;12.48;;;10.40;;
36585;SDS011;22591;48.314;11.562;2023-01-28T12:20:47;9.65;;;8.10;;
36585;SDS011;22591;48.314;11.562;2023-01-28T12:26:44;15.35;;;11.93;;
36585;SDS011;22591;48.314;11.562;2023-01-28T12:29:34;19.23;;;14.90;;
36585;SDS011;22591;48.314;11.562;2023-01-28T12:34:59;18.10;;;14.23;;
36585;SDS011;22591;48.314;11.562;2023-01-28T12:37:52;17.55;;;13.65;;
36585;SDS011;22591;48.314;11.562;2023-01-28T12:43:02;19.67;;;13.85;;
36585;SDS011;22591;48.314;11.562;2023-01-28T12:45:39;21.02;;;13.73;;
36585;SDS011;22591;48.314;11.562;2023-01-28T12:48:18;14.88;;;11.68;;
36585;SDS011;22591;48.314;11.562;2023-01-28T12:50:52;15.20;;;11.02;;
36585;SDS011;22591;48.314;11.562;2023-01-28T12:53:45;16.48;;;12.32;;
36585;SDS011;22591;48.314;11.562;2023-01-28T12:56:36;24.73;;;13.18;;
36585;SDS011;22591;48.314;11.562;2023-01-28T12:59:13;15.57;;;11.02;;
36585;SDS011;22591;48.314;11.562;2023-01-28T13:01:52;16.38;;;12.13;;
36585;SDS011;22591;48.314;11.562;2023-01-28T13:04:36;15.05;;;12.27;;
36585;SDS011;22591;48.314;11.562;2023-01-28T13:07:12;18.88;;;14.00;;
36585;SDS011;22591;48.314;11.562;2023-01-28T13:09:47;12.85;;;10.50;;
36585;SDS011;22591;48.314;11.562;2023-01-28T13:12:17;12.40;;;9.80;;
36585;SDS011;22591;48.314;11.562;2023-01-28T13:14:44;14.20;;;11.85;;
36585;SDS011;22591;48.314;11.562;2023-01-28T13:17:12;13.50;;;11.20;;
36585;SDS011;22591;48.314;11.562;2023-01-28T13:19:50;18.27;;;12.52;;
36585;SDS011;22591;48.314;11.562;2023-01-28T13:22:30;16.40;;;12.68;;
36585;SDS011;22591;48.314;11.562;2023-01-28T13:28:03;12.95;;;10.25;;
36585;SDS011;22591;48.314;11.562;2023-01-28T13:30:34;12.00;;;9.70;;
36585;SDS011;22591;48.314;11.562;2023-01-28T13:33:28;16.35;;;12.13;;
36585;SDS011;22591;48.314;11.562;2023-01-28T13:35:55;18.13;;;14.10;;
36585;SDS011;22591;48.314;11.562;2023-01-28T13:38:21;21.17;;;14.27;;
36585;SDS011;22591;48.314;11.562;2023-01-28T13:40:55;19.55;;;14.88;;
36585;SDS011;22591;48.314;11.562;2023-01-28T13:43:25;17.75;;;12.85;;
36585;SDS011;22591;48.314;11.562;2023-01-28T13:45:58;18.45;;;13.90;;
36585;SDS011;22591;48.314;11.562;2023-01-28T13:48:51;18.65;;;13.77;;
36585;SDS011;22591;48.314;11.562;2023-01-28T13:54:06;16.17;;;11.90;;
36585;SDS011;22591;48.314;11.562;2023-01-28T14:10:33;22.13;;;13.90;;
36585;SDS011;22591;48.314;11.562;2023-01-28T14:13:28;19.33;;;14.50;;
36585;SDS011;22591;48.314;11.562;2023-01-28T14:16:26;19.27;;;14.18;;
36585;SDS011;22591;48.314;11.562;2023-01-28T14:19:02;17.90;;;13.40;;
36585;SDS011;22591;48.314;11.562;2023-01-28T14:21:29;18.45;;;14.00;;
36585;SDS011;22591;48.314;11.562;2023-01-28T14:23:58;20.23;;;15.13;;
36585;SDS011;22591;48.314;11.562;2023-01-28T14:29:19;22.13;;;14.80;;
36585;SDS011;22591;48.314;11.562;2023-01-28T14:31:48;22.53;;;13.73;;
36585;SDS011;22591;48.314;11.562;2023-01-28T14:34:31;23.27;;;14.88;;
36585;SDS011;22591;48.314;11.562;2023-01-28T14:37:02;19.38;;;13.10;;
36585;SDS011;22591;48.314;11.562;2023-01-28T14:39:31;13.75;;;10.73;;
36585;SDS011;22591;48.314;11.562;2023-01-28T14:42:03;17.05;;;11.45;;
36585;SDS011;22591;48.314;11.562;2023-01-28T14:44:30;17.67;;;13.82;;
36585;SDS011;22591;48.314;11.562;2023-01-28T14:57:51;20.73;;;14.18;;
36585;SDS011;22591;48.314;11.562;2023-01-28T15:02:50;20.55;;;15.18;;
36585;SDS011;22591;48.314;11.562;2023-01-28T15:05:18;22.17;;;16.00;;
36585;SDS011;22591;48.314;11.562;2023-01-28T15:07:46;22.13;;;14.98;;
36585;SDS011;22591;48.314;11.562;2023-01-28T15:12:39;25.38;;;16.17;;
36585;SDS011;22591;48.314;11.562;2023-01-28T15:15:27;24.55;;;16.60;;
36585;SDS011;22591;48.314;11.562;2023-01-28T15:18:09;24.48;;;16.20;;
36585;SDS011;22591;48.314;11.562;2023-01-28T15:20:45;23.52;;;15.77;;
36585;SDS011;22591;48.314;11.562;2023-01-28T15:23:14;24.33;;;16.45;;
36585;SDS011;22591;48.314;11.562;2023-01-28T15:25:41;24.83;;;16.48;;
36585;SDS011;22591;48.314;11.562;2023-01-28T15:28:11;26.15;;;16.27;;
36585;SDS011;22591;48.314;11.562;2023-01-28T15:30:49;28.73;;;18.57;;
36585;SDS011;22591;48.314;11.562;2023-01-28T15:33:15;28.48;;;18.17;;
36585;SDS011;22591;48.314;11.562;2023-01-28T15:35:47;29.08;;;17.75;;
36585;SDS011;22591;48.314;11.562;2023-01-28T15:38:17;24.98;;;17.15;;
36585;SDS011;22591;48.314;11.562;2023-01-28T15:40:44;22.90;;;16.42;;
36585;SDS011;22591;48.314;11.562;2023-01-28T15:43:23;26.70;;;18.27;;
36585;SDS011;22591;48.314;11.562;2023-01-28T15:45:53;25.70;;;15.55;;
36585;SDS011;22591;48.314;11.562;2023-01-28T15:48:20;29.20;;;18.60;;
36585;SDS011;22591;48.314;11.562;2023-01-28T15:50:56;26.40;;;17.00;;
36585;SDS011;22591;48.314;11.562;2023-01-28T15:53:35;33.07;;;18.20;;
36585;SDS011;22591;48.314;11.562;2023-01-28T15:56:10;29.50;;;17.98;;
36585;SDS011;22591;48.314;11.562;2023-01-28T15:58:38;30.92;;;18.33;;
36585;SDS011;22591;48.314;11.562;2023-01-28T16:03:37;30.50;;;19.52;;
36585;SDS011;22591;48.314;11.562;2023-01-28T16:06:06;29.73;;;19.35;;
36585;SDS011;22591;48.314;11.562;2023-01-28T16:08:43;32.80;;;18.85;;
36585;SDS011;22591;48.314;11.562;2023-01-28T16:11:12;31.63;;;20.65;;
36585;SDS011;22591;48.314;11.562;2023-01-28T16:13:49;28.65;;;19.52;;
36585;SDS011;22591;48.314;11.562;2023-01-28T16:16:15;31.77;;;19.40;;
36585;SDS011;22591;48.314;11.562;2023-01-28T16:18:54;34.35;;;19.33;;
36585;SDS011;22591;48.314;11.562;2023-01-28T16:21:21;35.90;;;19.42;;
36585;SDS011;22591;48.314;11.562;2023-01-28T16:24:01;30.45;;;19.70;;
36585;SDS011;22591;48.314;11.562;2023-01-28T16:26:43;30.40;;;18.15;;
36585;SDS011;22591;48.314;11.562;2023-01-28T16:29:19;29.52;;;16.90;;
36585;SDS011;22591;48.314;11.562;2023-01-28T16:31:45;26.38;;;19.10;;
36585;SDS011;22591;48.314;11.562;2023-01-28T16:34:10;27.13;;;16.73;;
36585;SDS011;22591;48.314;11.562;2023-01-28T16:36:36;31.15;;;17.05;;